createdAt,value
2019-03-09T00:00:15.807Z,6.10
2019-03-09T00:02:41.872Z,6.10
2019-03-09T00:05:08.431Z,6.10
2019-03-09T00:07:34.497Z,6.10
2019-03-09T00:10:00.581Z,6.00
2019-03-09T00:12:26.644Z,6.10
2019-03-09T00:14:52.730Z,6.20
2019-03-09T00:17:18.774Z,6.20
2019-03-09T00:19:44.840Z,6.10
2019-03-09T00:22:11.203Z,6.10
2019-03-09T00:24:47.983Z,6.10
2019-03-09T00:27:15.949Z,6.00
2019-03-09T00:29:43.922Z,6.00
2019-03-09T00:32:11.886Z,5.90
2019-03-09T00:34:38.240Z,6.00
2019-03-09T00:37:04.313Z,5.90
2019-03-09T00:39:30.361Z,5.90
2019-03-09T00:41:56.419Z,5.90
2019-03-09T00:44:22.497Z,5.90
2019-03-09T00:46:48.556Z,5.90
2019-03-09T00:49:15.429Z,5.90
2019-03-09T00:51:41.611Z,5.80
2019-03-09T00:54:07.674Z,5.90
2019-03-09T00:56:33.737Z,5.70
2019-03-09T00:58:59.789Z,5.80
2019-03-09T01:01:25.860Z,5.80
2019-03-09T01:03:51.921Z,5.80
2019-03-09T01:06:17.985Z,5.80
2019-03-09T01:08:44.037Z,5.70
2019-03-09T01:11:10.116Z,5.60
2019-03-09T01:13:36.177Z,5.60
2019-03-09T01:16:02.650Z,5.60
2019-03-09T01:18:28.800Z,5.60
2019-03-09T01:20:54.865Z,5.60
2019-03-09T01:23:21.050Z,5.70
2019-03-09T01:25:47.105Z,5.60
2019-03-09T01:28:13.162Z,5.60
2019-03-09T01:30:39.228Z,5.50
2019-03-09T01:33:05.302Z,5.60
2019-03-09T01:35:31.390Z,5.50
2019-03-09T01:37:57.450Z,5.50
2019-03-09T01:40:23.532Z,5.40
2019-03-09T01:42:49.596Z,5.40
2019-03-09T01:45:15.771Z,5.40
2019-03-09T01:47:41.950Z,5.40
2019-03-09T01:50:08.531Z,5.40
2019-03-09T01:52:34.701Z,5.30
2019-03-09T01:55:00.771Z,5.40
2019-03-09T01:57:26.854Z,5.30
2019-03-09T01:59:53.026Z,5.20
2019-03-09T02:02:19.099Z,5.20
2019-03-09T02:04:45.195Z,5.40
2019-03-09T02:07:11.264Z,5.50
2019-03-09T02:09:37.364Z,5.50
2019-03-09T02:12:03.434Z,5.50
2019-03-09T02:14:29.498Z,5.40
2019-03-09T02:16:55.696Z,5.40
2019-03-09T02:19:21.773Z,5.40
2019-03-09T02:21:47.870Z,5.40
2019-03-09T02:24:16.738Z,5.50
2019-03-09T02:26:42.802Z,4.50
2019-03-09T02:29:08.879Z,5.50
2019-03-09T02:31:34.952Z,5.60
2019-03-09T02:34:01.024Z,5.60
2019-03-09T02:36:27.110Z,5.80
2019-03-09T02:38:55.229Z,5.90
2019-03-09T02:41:21.584Z,6.00
2019-03-09T02:43:47.660Z,6.00
2019-03-09T02:46:13.839Z,6.10
2019-03-09T02:48:39.923Z,6.10
2019-03-09T02:51:06.092Z,6.10
2019-03-09T02:53:32.157Z,6.10
2019-03-09T02:55:58.340Z,6.00
2019-03-09T02:58:24.404Z,6.10
2019-03-09T03:00:55.471Z,6.10
2019-03-09T03:03:21.553Z,6.00
2019-03-09T03:05:47.634Z,6.00
2019-03-09T03:08:33.580Z,6.00
2019-03-09T03:10:59.671Z,6.00
2019-03-09T03:13:25.752Z,6.00
2019-03-09T03:15:51.820Z,6.00
2019-03-09T03:18:17.904Z,5.90
2019-03-09T03:20:43.971Z,6.00
2019-03-09T03:23:10.055Z,6.00
2019-03-09T03:25:36.137Z,6.00
2019-03-09T03:28:02.224Z,6.00
2019-03-09T03:30:28.301Z,6.00
2019-03-09T03:32:56.290Z,6.00
2019-03-09T03:35:22.354Z,6.00
2019-03-09T03:37:48.448Z,6.00
2019-03-09T03:40:14.604Z,6.00
2019-03-09T03:42:40.682Z,6.00
2019-03-09T03:45:09.348Z,5.90
2019-03-09T03:47:35.451Z,5.90
2019-03-09T03:50:01.715Z,5.90
2019-03-09T03:52:27.812Z,6.00
2019-03-09T03:54:53.884Z,6.00
2019-03-09T03:57:20.269Z,6.00
2019-03-09T03:59:46.567Z,6.00
2019-03-09T04:02:12.725Z,6.10
2019-03-09T04:04:38.925Z,6.10
2019-03-09T04:07:05.227Z,6.10
2019-03-09T04:09:31.395Z,6.10
2019-03-09T04:11:57.488Z,6.10
2019-03-09T04:14:23.583Z,6.10
2019-03-09T04:16:49.723Z,6.00
2019-03-09T04:19:15.822Z,6.00
2019-03-09T04:21:41.896Z,6.00
2019-03-09T04:24:07.982Z,6.00
2019-03-09T04:26:34.155Z,6.10
2019-03-09T04:29:00.227Z,6.10
2019-03-09T04:31:26.319Z,6.10
2019-03-09T04:33:52.495Z,6.00
2019-03-09T04:36:18.578Z,6.10
2019-03-09T04:38:44.759Z,6.00
2019-03-09T04:41:10.839Z,6.10
2019-03-09T04:43:36.955Z,6.00
2019-03-09T04:46:03.029Z,5.90
2019-03-09T04:48:29.218Z,5.80
2019-03-09T04:50:55.278Z,5.90
2019-03-09T04:53:21.346Z,5.90
2019-03-09T04:55:47.421Z,5.90
2019-03-09T04:58:13.526Z,5.90
2019-03-09T05:00:39.583Z,6.10
2019-03-09T05:03:05.678Z,5.90
2019-03-09T05:05:31.764Z,6.00
2019-03-09T05:08:01.637Z,6.10
2019-03-09T05:10:37.553Z,6.20
2019-03-09T05:13:10.154Z,6.00
2019-03-09T05:15:36.244Z,6.00
2019-03-09T05:18:02.312Z,5.90
2019-03-09T05:20:28.387Z,6.00
2019-03-09T05:22:54.459Z,6.00
2019-03-09T05:25:20.547Z,6.00
2019-03-09T05:27:46.617Z,6.00
2019-03-09T05:30:22.759Z,6.00
2019-03-09T05:32:48.927Z,6.00
2019-03-09T05:35:14.991Z,5.90
2019-03-09T05:37:43.337Z,6.00
2019-03-09T05:40:09.159Z,6.00
2019-03-09T05:42:35.226Z,5.90
2019-03-09T05:45:01.313Z,6.10
2019-03-09T05:47:27.411Z,6.10
2019-03-09T05:49:53.621Z,6.20
2019-03-09T05:52:23.526Z,6.20
2019-03-09T05:54:49.583Z,6.40
2019-03-09T05:57:15.655Z,6.30
2019-03-09T05:59:41.727Z,6.40
2019-03-09T06:02:07.834Z,6.30
2019-03-09T06:04:33.902Z,6.40
2019-03-09T06:06:59.980Z,6.50
2019-03-09T06:09:26.068Z,6.50
2019-03-09T06:11:52.155Z,6.50
2019-03-09T06:14:18.239Z,6.60
2019-03-09T06:16:44.307Z,6.70
2019-03-09T06:19:10.396Z,6.70
2019-03-09T06:21:56.414Z,6.80
2019-03-09T06:24:22.567Z,6.60
2019-03-09T06:26:48.638Z,6.80
2019-03-09T06:29:14.719Z,7.00
2019-03-09T06:32:01.644Z,7.00
2019-03-09T06:34:27.735Z,7.10
2019-03-09T06:36:57.616Z,7.00
2019-03-09T06:39:23.795Z,7.10
2019-03-09T06:41:59.900Z,7.10
2019-03-09T06:44:25.995Z,7.20
2019-03-09T06:46:52.068Z,6.20
2019-03-09T06:49:18.147Z,7.30
2019-03-09T06:51:44.277Z,7.30
2019-03-09T06:54:10.419Z,7.40
2019-03-09T06:56:36.492Z,7.50
2019-03-09T06:59:02.972Z,7.60
2019-03-09T07:01:29.053Z,7.60
2019-03-09T07:03:55.150Z,7.60
2019-03-09T07:06:21.247Z,7.70
2019-03-09T07:08:47.405Z,7.70
2019-03-09T07:11:13.487Z,7.80
2019-03-09T07:13:40.564Z,7.90
2019-03-09T07:16:07.265Z,7.90
2019-03-09T07:18:34.603Z,7.90
2019-03-09T07:21:00.679Z,8.00
2019-03-09T07:23:26.875Z,8.10
2019-03-09T07:25:52.955Z,8.10
2019-03-09T07:28:19.071Z,8.00
2019-03-09T07:30:45.333Z,7.80
2019-03-09T07:33:11.436Z,7.60
2019-03-09T07:35:37.507Z,7.50
2019-03-09T07:38:03.677Z,7.30
2019-03-09T07:40:29.774Z,7.20
2019-03-09T07:42:55.842Z,7.20
2019-03-09T07:45:21.959Z,7.00
2019-03-09T07:47:48.014Z,6.80
2019-03-09T07:50:15.676Z,6.60
2019-03-09T07:52:41.871Z,6.50
2019-03-09T07:55:10.655Z,6.50
2019-03-09T07:57:36.739Z,6.60
2019-03-09T08:00:17.354Z,6.50
2019-03-09T08:03:03.741Z,6.50
2019-03-09T08:05:29.838Z,6.20
2019-03-09T08:07:55.912Z,6.40
2019-03-09T08:10:25.002Z,6.30
2019-03-09T08:12:51.076Z,6.30
2019-03-09T08:15:18.371Z,6.30
2019-03-09T08:17:45.245Z,6.30
2019-03-09T08:20:15.491Z,6.40
2019-03-09T08:22:41.679Z,6.50
2019-03-09T08:25:29.539Z,6.60
2019-03-09T08:27:55.652Z,6.70
2019-03-09T08:30:24.618Z,6.90
2019-03-09T08:32:50.695Z,7.00
2019-03-09T08:35:17.578Z,7.20
2019-03-09T08:37:43.969Z,7.30
2019-03-09T08:40:12.328Z,7.30
2019-03-09T08:42:38.403Z,7.40
2019-03-09T08:45:10.161Z,7.50
2019-03-09T08:47:36.439Z,7.40
2019-03-09T08:50:05.707Z,7.70
2019-03-09T08:52:31.884Z,7.70
2019-03-09T08:54:58.026Z,7.80
2019-03-09T08:57:24.166Z,7.80
2019-03-09T08:59:50.331Z,7.90
2019-03-09T09:02:16.514Z,8.00
2019-03-09T09:04:42.670Z,7.90
2019-03-09T09:07:08.754Z,7.90
2019-03-09T09:09:34.826Z,7.90
2019-03-09T09:12:00.919Z,8.00
2019-03-09T09:14:26.860Z,8.00
2019-03-09T09:16:52.807Z,7.90
2019-03-09T09:19:18.868Z,8.00
2019-03-09T09:21:44.959Z,8.00
2019-03-09T09:24:11.035Z,8.10
2019-03-09T09:26:37.074Z,8.20
2019-03-09T09:29:03.283Z,8.30
2019-03-09T09:31:29.575Z,8.50
2019-03-09T09:33:55.657Z,8.60
2019-03-09T09:36:21.755Z,8.70
2019-03-09T09:38:47.834Z,8.80
2019-03-09T09:41:14.014Z,8.90
2019-03-09T09:43:40.084Z,9.00
2019-03-09T09:46:06.174Z,9.10
2019-03-09T09:48:32.361Z,9.10
2019-03-09T09:50:58.427Z,9.30
2019-03-09T09:53:24.518Z,9.50
2019-03-09T09:55:50.679Z,9.50
2019-03-09T09:58:16.778Z,9.50
2019-03-09T10:00:42.935Z,9.60
2019-03-09T10:03:09.031Z,9.50
2019-03-09T10:05:35.210Z,9.50
2019-03-09T10:08:01.419Z,9.70
2019-03-09T10:10:29.659Z,9.80
2019-03-09T10:12:56.153Z,9.90
2019-03-09T10:15:28.360Z,9.60
2019-03-09T10:17:54.432Z,9.60
2019-03-09T10:20:20.593Z,9.40
2019-03-09T10:22:46.787Z,9.30
2019-03-09T10:25:12.856Z,9.40
2019-03-09T10:27:38.950Z,9.50
2019-03-09T10:30:14.454Z,9.60
2019-03-09T10:32:40.564Z,9.50
2019-03-09T10:35:07.036Z,9.60
2019-03-09T10:37:33.139Z,9.50
2019-03-09T10:39:59.221Z,9.60
2019-03-09T10:42:25.375Z,9.70
2019-03-09T10:44:51.460Z,9.90
2019-03-09T10:47:17.546Z,10.20
2019-03-09T10:49:43.619Z,10.30
2019-03-09T10:52:09.708Z,10.20
2019-03-09T10:54:36.359Z,10.20
2019-03-09T10:57:02.578Z,10.40
2019-03-09T10:59:28.638Z,10.30
2019-03-09T11:01:54.727Z,10.20
2019-03-09T11:04:27.689Z,10.20
2019-03-09T11:06:48.856Z,10.50
2019-03-09T11:09:14.973Z,10.70
2019-03-09T11:11:41.021Z,10.60
2019-03-09T11:14:07.101Z,10.70
2019-03-09T11:16:33.156Z,11.00
2019-03-09T11:18:59.229Z,11.30
2019-03-09T11:21:25.294Z,11.60
2019-03-09T11:23:51.432Z,11.70
2019-03-09T11:26:17.664Z,11.80
2019-03-09T11:28:44.059Z,11.60
2019-03-09T11:31:10.135Z,11.50
2019-03-09T11:33:36.224Z,11.60
2019-03-09T11:36:02.297Z,11.80
2019-03-09T11:38:28.384Z,11.70
2019-03-09T11:40:58.617Z,11.50
2019-03-09T11:43:22.434Z,11.50
2019-03-09T11:45:48.527Z,11.70
2019-03-09T11:48:14.691Z,11.80
2019-03-09T11:50:40.783Z,11.80
2019-03-09T11:53:06.850Z,11.70
2019-03-09T11:55:32.939Z,11.60
2019-03-09T11:57:59.003Z,11.80
2019-03-09T12:00:30.091Z,11.90
2019-03-09T12:02:56.161Z,12.00
2019-03-09T12:05:22.247Z,11.70
2019-03-09T12:07:48.515Z,11.50
2019-03-09T12:10:14.615Z,11.80
2019-03-09T12:12:40.801Z,11.60
2019-03-09T12:15:09.753Z,11.50
2019-03-09T12:17:35.815Z,11.40
2019-03-09T12:20:04.103Z,11.40
2019-03-09T12:22:30.227Z,11.60
2019-03-09T12:24:56.412Z,11.60
2019-03-09T12:27:22.619Z,11.60
2019-03-09T12:29:48.799Z,11.80
2019-03-09T12:32:14.871Z,12.00
2019-03-09T12:34:41.060Z,12.20
2019-03-09T12:37:07.140Z,12.10
2019-03-09T12:39:33.214Z,12.00
2019-03-09T12:41:59.314Z,12.10
2019-03-09T12:44:25.423Z,12.30
2019-03-09T12:46:51.581Z,12.30
2019-03-09T12:49:17.643Z,12.40
2019-03-09T12:51:43.755Z,12.40
2019-03-09T12:54:09.834Z,12.60
2019-03-09T12:56:35.961Z,12.60
2019-03-09T12:59:02.118Z,12.60
2019-03-09T13:01:28.183Z,12.70
2019-03-09T13:03:54.287Z,13.10
2019-03-09T13:06:20.383Z,13.10
2019-03-09T13:08:46.499Z,13.20
2019-03-09T13:11:12.667Z,13.20
2019-03-09T13:13:38.751Z,13.10
2019-03-09T13:16:04.835Z,12.90
2019-03-09T13:18:30.903Z,13.00
2019-03-09T13:20:57.031Z,13.30
2019-03-09T13:23:23.175Z,13.30
2019-03-09T13:25:49.250Z,13.00
2019-03-09T13:28:15.326Z,13.00
2019-03-09T13:33:12.200Z,12.90
2019-03-09T13:35:38.362Z,12.60
2019-03-09T13:38:04.428Z,12.60
2019-03-09T13:40:30.519Z,12.50
2019-03-09T13:42:56.686Z,12.80
2019-03-09T13:45:22.756Z,12.90
2019-03-09T13:47:48.838Z,13.00
2019-03-09T13:50:14.926Z,12.50
2019-03-09T13:52:41.099Z,12.20
2019-03-09T13:55:08.671Z,12.20
2019-03-09T13:57:34.757Z,12.20
2019-03-09T14:00:00.821Z,12.10
2019-03-09T14:02:26.898Z,12.00
2019-03-09T14:04:52.958Z,11.80
2019-03-09T14:07:19.047Z,11.70
2019-03-09T14:09:45.115Z,11.60
2019-03-09T14:12:11.200Z,11.40
2019-03-09T14:14:37.304Z,11.30
2019-03-09T14:17:03.472Z,11.20
2019-03-09T14:19:29.539Z,11.00
2019-03-09T14:21:55.644Z,11.00
2019-03-09T14:24:21.823Z,11.10
2019-03-09T14:26:47.915Z,11.10
2019-03-09T14:29:13.999Z,10.90
2019-03-09T14:31:40.387Z,10.80
2019-03-09T14:34:06.491Z,10.70
2019-03-09T14:36:32.559Z,10.70
2019-03-09T14:38:58.645Z,10.70
2019-03-09T14:41:24.722Z,10.70
2019-03-09T14:43:50.799Z,10.80
2019-03-09T14:46:16.890Z,10.70
2019-03-09T14:48:42.983Z,10.60
2019-03-09T14:51:09.054Z,10.60
2019-03-09T14:53:35.155Z,10.60
2019-03-09T14:56:01.231Z,10.60
2019-03-09T14:58:27.326Z,10.40
2019-03-09T15:00:53.399Z,10.30
2019-03-09T15:03:19.468Z,10.30
2019-03-09T15:05:45.567Z,10.30
2019-03-09T15:08:11.686Z,10.30
2019-03-09T15:10:37.859Z,10.30
2019-03-09T15:13:03.948Z,10.40
2019-03-09T15:15:30.027Z,10.20
2019-03-09T15:17:56.110Z,10.40
2019-03-09T15:20:22.178Z,10.50
2019-03-09T15:22:48.245Z,10.60
2019-03-09T15:25:18.022Z,10.50
2019-03-09T15:27:44.100Z,10.40
2019-03-09T15:30:12.482Z,10.50
2019-03-09T15:32:38.695Z,10.40
2019-03-09T15:35:06.483Z,10.30
2019-03-09T15:37:32.580Z,10.10
2019-03-09T15:39:58.662Z,9.90
2019-03-09T15:42:24.759Z,9.70
2019-03-09T15:44:50.845Z,9.60
2019-03-09T15:47:16.915Z,9.90
2019-03-09T15:49:43.003Z,9.50
2019-03-09T15:52:10.370Z,9.50
2019-03-09T15:54:36.793Z,9.50
2019-03-09T15:57:02.871Z,9.50
2019-03-09T15:59:29.044Z,9.40
2019-03-09T16:01:55.164Z,9.30
2019-03-09T16:04:21.250Z,9.20
2019-03-09T16:06:47.360Z,9.00
2019-03-09T16:09:13.451Z,8.80
2019-03-09T16:11:45.102Z,8.70
2019-03-09T16:14:07.631Z,8.40
2019-03-09T16:16:33.724Z,8.30
2019-03-09T16:18:59.832Z,8.30
2019-03-09T16:21:25.927Z,8.20
2019-03-09T16:23:52.133Z,8.10
2019-03-09T16:26:18.387Z,8.10
2019-03-09T16:28:44.595Z,8.00
2019-03-09T16:31:10.745Z,8.00
2019-03-09T16:33:36.944Z,8.00
2019-03-09T16:36:03.154Z,8.10
2019-03-09T16:38:29.347Z,8.10
2019-03-09T16:40:55.421Z,8.30
2019-03-09T16:43:21.486Z,8.10
2019-03-09T16:45:47.579Z,8.10
2019-03-09T16:48:13.680Z,8.10
2019-03-09T16:50:39.786Z,8.10
2019-03-09T16:53:05.940Z,8.10
2019-03-09T16:55:32.024Z,8.10
2019-03-09T16:57:58.118Z,8.00
2019-03-09T17:00:24.291Z,8.00
2019-03-09T17:02:50.421Z,8.10
2019-03-09T17:05:16.595Z,8.00
2019-03-09T17:07:42.690Z,8.00
2019-03-09T17:10:10.483Z,8.00
2019-03-09T17:12:36.563Z,8.00
2019-03-09T17:15:06.264Z,8.10
2019-03-09T17:17:32.342Z,8.10
2019-03-09T17:19:58.410Z,8.10
2019-03-09T17:22:32.641Z,8.10
2019-03-09T17:24:52.461Z,8.10
2019-03-09T17:27:18.541Z,8.10
2019-03-09T17:29:44.616Z,8.10
2019-03-09T17:32:10.696Z,8.10
2019-03-09T17:34:36.790Z,8.20
2019-03-09T17:37:02.859Z,8.20
2019-03-09T17:39:28.960Z,8.20
2019-03-09T17:41:55.036Z,8.30
2019-03-09T17:44:21.099Z,8.40
2019-03-09T17:46:47.315Z,8.40
2019-03-09T17:49:13.467Z,8.40
2019-03-09T17:51:39.431Z,8.40
2019-03-09T17:54:05.598Z,8.40
2019-03-09T17:56:31.632Z,8.50
2019-03-09T17:58:57.803Z,8.50
2019-03-09T18:01:23.745Z,8.40
2019-03-09T18:03:49.935Z,8.50
2019-03-09T18:06:16.023Z,8.50
2019-03-09T18:08:42.210Z,8.50
2019-03-09T18:11:09.623Z,8.30
2019-03-09T18:13:35.789Z,8.50
2019-03-09T18:16:02.015Z,8.60
2019-03-09T18:18:28.167Z,8.50
2019-03-09T18:20:54.235Z,8.50
2019-03-09T18:23:20.419Z,8.50
2019-03-09T18:25:46.496Z,8.50
2019-03-09T18:28:12.585Z,8.50
2019-03-09T18:30:38.655Z,8.50
2019-03-09T18:33:04.786Z,8.50
2019-03-09T18:35:30.932Z,8.50
2019-03-09T18:37:57.023Z,8.60
2019-03-09T18:40:23.086Z,8.60
2019-03-09T18:42:49.167Z,8.60
2019-03-09T18:45:20.244Z,8.60
2019-03-09T18:47:46.327Z,8.60
2019-03-09T18:50:12.995Z,8.70
2019-03-09T18:52:39.480Z,8.70
2019-03-09T18:55:06.791Z,8.70
2019-03-09T18:57:32.897Z,8.70
2019-03-09T18:59:59.074Z,8.70
2019-03-09T19:02:25.158Z,8.90
2019-03-09T19:04:51.224Z,8.80
2019-03-09T19:07:17.410Z,8.80
2019-03-09T19:09:43.500Z,8.80
2019-03-09T19:12:09.595Z,8.90
2019-03-09T19:14:35.755Z,9.00
2019-03-09T19:17:01.864Z,9.10
2019-03-09T19:19:28.042Z,9.10
2019-03-09T19:21:54.117Z,9.00
2019-03-09T19:24:20.183Z,9.10
2019-03-09T19:26:46.139Z,9.10
2019-03-09T19:29:12.211Z,9.10
2019-03-09T19:31:38.318Z,9.10
2019-03-09T19:34:04.399Z,9.20
2019-03-09T19:36:30.462Z,9.20
2019-03-09T19:38:56.538Z,9.20
2019-03-09T19:41:23.890Z,9.30
2019-03-09T19:43:54.194Z,9.30
2019-03-09T19:46:20.286Z,9.40
2019-03-09T19:48:46.880Z,9.40
2019-03-09T19:51:13.038Z,9.50
2019-03-09T19:53:39.002Z,9.50
2019-03-09T19:56:05.124Z,9.50
2019-03-09T19:58:31.191Z,9.50
2019-03-09T20:00:57.258Z,9.50
2019-03-09T20:03:23.347Z,9.60
2019-03-09T20:05:49.424Z,9.70
2019-03-09T20:08:15.372Z,9.70
2019-03-09T20:10:42.354Z,9.80
2019-03-09T20:13:08.384Z,9.80
2019-03-09T20:15:34.454Z,9.90
2019-03-09T20:18:00.531Z,9.90
2019-03-09T20:20:26.597Z,9.90
2019-03-09T20:22:52.521Z,9.90
2019-03-09T20:25:19.114Z,9.90
2019-03-09T20:27:47.222Z,9.90
2019-03-09T20:30:37.198Z,10.00
2019-03-09T20:33:03.538Z,9.90
2019-03-09T20:35:47.885Z,9.90
2019-03-09T20:38:42.594Z,9.90
2019-03-09T20:41:17.499Z,10.00
2019-03-09T20:43:52.042Z,9.70
2019-03-09T20:46:18.222Z,9.90
2019-03-09T20:48:44.432Z,10.00
2019-03-09T20:51:13.911Z,10.00
2019-03-09T20:53:43.073Z,9.70
2019-03-09T20:56:12.088Z,10.00
2019-03-09T20:58:46.350Z,10.00
2019-03-09T21:01:18.067Z,10.00
2019-03-09T21:03:44.139Z,10.00
2019-03-09T21:08:42.366Z,10.00
2019-03-09T21:11:08.311Z,10.00
2019-03-09T21:13:34.401Z,10.00
2019-03-09T21:16:00.575Z,10.00
2019-03-09T21:18:26.631Z,10.00
2019-03-09T21:20:52.721Z,10.00
2019-03-09T21:23:18.779Z,10.00
2019-03-09T21:25:47.274Z,10.10
2019-03-09T21:28:12.747Z,10.00
2019-03-09T21:30:38.807Z,10.00
2019-03-09T21:33:04.908Z,10.00
2019-03-09T21:35:30.866Z,10.00
2019-03-09T21:37:56.934Z,10.00
2019-03-09T21:40:22.871Z,10.10
2019-03-09T21:42:48.934Z,10.00
2019-03-09T21:45:15.220Z,10.00
2019-03-09T21:47:41.287Z,10.00
2019-03-09T21:50:21.548Z,10.00
2019-03-09T21:52:47.479Z,9.10
2019-03-09T21:55:14.135Z,10.00
2019-03-09T21:57:40.067Z,10.20
2019-03-09T22:00:09.956Z,10.10
2019-03-09T22:02:35.924Z,10.20
2019-03-09T22:05:02.156Z,10.10
2019-03-09T22:07:28.137Z,10.10
2019-03-09T22:09:54.070Z,10.10
2019-03-09T22:12:20.026Z,10.10
2019-03-09T22:14:45.990Z,10.10
2019-03-09T22:17:12.039Z,10.30
2019-03-09T22:19:38.010Z,10.30
2019-03-09T22:22:04.019Z,10.30
2019-03-09T22:24:29.970Z,10.30
2019-03-09T22:26:56.004Z,10.20
2019-03-09T22:29:21.945Z,10.30
2019-03-09T22:31:50.080Z,10.20
2019-03-09T22:34:18.874Z,10.20
2019-03-09T22:36:52.520Z,10.30
2019-03-09T22:39:20.373Z,10.30
2019-03-09T22:41:50.783Z,10.50
2019-03-09T22:44:22.855Z,10.30
2019-03-09T22:46:50.900Z,10.30
2019-03-09T22:49:21.513Z,10.30
2019-03-09T22:51:47.462Z,10.30
2019-03-09T22:54:13.407Z,10.20
2019-03-09T22:56:39.494Z,10.20
2019-03-09T22:59:05.439Z,10.20
2019-03-09T23:01:31.599Z,10.20
2019-03-09T23:03:57.535Z,10.20
2019-03-09T23:06:23.505Z,10.20
2019-03-09T23:08:49.434Z,10.30
2019-03-09T23:11:15.419Z,10.20
2019-03-09T23:13:41.355Z,10.30
2019-03-09T23:16:07.314Z,10.30
2019-03-09T23:18:33.255Z,10.30
2019-03-09T23:20:59.198Z,10.20
2019-03-09T23:23:25.152Z,10.30
2019-03-09T23:25:51.091Z,10.20
2019-03-09T23:28:36.990Z,10.20
2019-03-09T23:31:02.958Z,10.10
2019-03-09T23:33:29.035Z,10.20
2019-03-09T23:35:54.966Z,10.20
2019-03-09T23:38:20.934Z,10.20
2019-03-09T23:40:46.994Z,10.10
2019-03-09T23:43:13.057Z,10.10
2019-03-09T23:45:39.408Z,10.10
2019-03-09T23:48:05.342Z,10.10
2019-03-09T23:50:31.804Z,10.10
2019-03-09T23:52:57.749Z,10.10
2019-03-09T23:55:23.791Z,10.10
2019-03-09T23:57:49.863Z,10.00
